| Date | Time | Temp. (oF) | Dew Point (oF) | Rel. Hum. (%) | Press. (in.) | Wind Dir. | Wind Speed (mph) | Hourly Rainfall (in.) |
|
|---|---|---|---|---|---|---|---|---|---|
| 1 | 02/17 | 00:00 | 10 | 9 | 100 | 30.32 | NE | 7 | 0.00 |
| 2 | 02/16 | 23:00 | 10 | 9 | 99 | 30.37 | NE | 10 | 0.00 |
| 3 | 02/16 | 22:00 | 9 | 8 | 99 | 30.40 | NNE | 8 | 0.00 |
| 4 | 02/16 | 21:00 | 9 | 8 | 99 | 30.45 | NNE | 10 | 0.00 |
| 5 | 02/16 | 20:00 | 9 | 8 | 99 | 30.46 | NNE | 8 | 0.00 |
| 6 | 02/16 | 19:00 | 8 | 7 | 99 | 30.48 | NE | 4 | 0.00 |
| 7 | 02/16 | 18:00 | 8 | 7 | 98 | 30.50 | NE | 14 | 0.00 |
| 8 | 02/16 | 17:00 | 8 | 7 | 98 | 30.53 | NE | 8 | 0.00 |
| 9 | 02/16 | 16:00 | 9 | 8 | 97 | 30.55 | NNE | 9 | 0.00 |
| 10 | 02/16 | 15:00 | 9 | 8 | 97 | 30.56 | N | 2 | 0.00 |
| 11 | 02/16 | 14:00 | 9 | 8 | 97 | 30.58 | E | 9 | 0.00 |
| 12 | 02/16 | 13:00 | 9 | 8 | 96 | 30.59 | NE | 13 | 0.00 |
| 13 | 02/16 | 12:00 | 9 | 8 | 96 | 30.60 | NNE | 11 | 0.00 |
| 14 | 02/16 | 11:00 | 9 | 7 | 95 | 30.62 | NNE | 11 | 0.00 |
| 15 | 02/16 | 10:00 | 9 | 7 | 95 | 30.63 | NE | 7 | 0.00 |
| 16 | 02/16 | 09:00 | 9 | 7 | 92 | 30.64 | NNE | 6 | 0.00 |
| 17 | 02/16 | 08:00 | 9 | 4 | 82 | 30.63 | NE | 11 | 0.00 |
| 18 | 02/16 | 07:00 | 12 | -1 | 53 | 30.62 | NNW | 5 | 0.00 |
| 19 | 02/16 | 06:00 | 12 | -2 | 52 | 30.61 | NNE | 6 | 0.00 |
| 20 | 02/16 | 05:00 | 13 | -2 | 49 | 30.61 | NE | 10 | 0.00 |
| 21 | 02/16 | 04:00 | 13 | -1 | 52 | 30.60 | NNE | 4 | 0.00 |
| 22 | 02/16 | 03:00 | 13 | -3 | 48 | 30.59 | NE | 4 | 0.00 |
| 23 | 02/16 | 02:00 | 13 | -3 | 46 | 30.56 | N | 7 | 0.00 |
| 24 | 02/16 | 01:00 | 14 | -1 | 49 | 30.57 | N | 6 | 0.00 |